createdAt,value
2022-10-05T04:04:55.108Z,0.00
2022-10-05T04:05:56.069Z,0.00
2022-10-05T04:06:56.039Z,0.00
2022-10-05T04:07:56.046Z,0.00
2022-10-05T04:08:56.022Z,0.00
2022-10-05T04:09:56.030Z,0.00
2022-10-05T04:10:55.978Z,0.00
2022-10-05T04:11:56.049Z,0.00
2022-10-05T04:12:56.003Z,0.00
2022-10-05T04:13:55.956Z,0.00
2022-10-05T04:14:55.942Z,0.00
2022-10-05T04:15:56.016Z,0.00
2022-10-05T04:16:55.922Z,0.00
2022-10-05T04:17:55.959Z,0.00
2022-10-05T04:18:55.893Z,0.00
2022-10-05T04:19:55.880Z,0.00
2022-10-05T04:20:55.906Z,0.00
2022-10-05T04:21:55.899Z,0.00
2022-10-05T04:22:55.862Z,0.00
2022-10-05T04:23:55.846Z,0.00
2022-10-05T04:24:55.851Z,0.00
2022-10-05T04:25:55.848Z,0.00
2022-10-05T04:26:55.800Z,0.00
2022-10-05T04:27:55.886Z,0.00
2022-10-05T04:28:55.793Z,0.00
2022-10-05T04:29:55.847Z,0.00
2022-10-05T04:30:55.804Z,0.00
2022-10-05T04:31:55.769Z,0.00
2022-10-05T04:32:55.797Z,0.00
2022-10-05T04:33:55.737Z,0.00
2022-10-05T04:34:55.762Z,0.00
2022-10-05T04:35:55.734Z,0.00
2022-10-05T04:36:55.699Z,0.00
2022-10-05T04:37:55.698Z,0.00
2022-10-05T04:38:55.697Z,0.00
2022-10-05T04:40:02.205Z,0.00
2022-10-05T04:40:55.643Z,0.00
2022-10-05T04:41:55.641Z,0.00
2022-10-05T04:42:55.637Z,0.00
2022-10-05T04:43:55.607Z,0.00
2022-10-05T04:44:59.054Z,0.00
2022-10-05T04:45:55.582Z,0.00
2022-10-05T04:46:55.724Z,0.00
2022-10-05T04:47:55.592Z,0.00
2022-10-05T04:48:55.559Z,0.00
2022-10-05T04:49:55.575Z,0.00
2022-10-05T04:50:55.536Z,0.00
2022-10-05T04:51:55.535Z,0.00
2022-10-05T04:52:55.516Z,0.00
2022-10-05T04:53:55.512Z,0.00
2022-10-05T04:54:55.525Z,0.00
2022-10-05T04:55:55.484Z,0.00
2022-10-05T04:56:55.483Z,0.00
2022-10-05T04:57:55.462Z,0.00
2022-10-05T04:58:55.479Z,0.00
2022-10-05T04:59:55.436Z,0.00
2022-10-05T05:00:55.510Z,0.00
2022-10-05T05:01:55.418Z,0.00
2022-10-05T05:03:01.925Z,0.00
2022-10-05T05:03:55.450Z,0.00
2022-10-05T05:04:55.402Z,0.00
2022-10-05T05:06:15.819Z,0.00
2022-10-05T05:06:55.355Z,0.00
2022-10-05T05:07:55.351Z,0.00
2022-10-05T05:08:55.356Z,0.00
2022-10-05T05:09:55.339Z,0.00
2022-10-05T05:10:55.317Z,0.00
2022-10-05T05:11:55.317Z,0.00
2022-10-05T05:12:55.287Z,0.00
2022-10-05T05:13:55.276Z,0.00
2022-10-05T05:14:55.271Z,0.00
2022-10-05T05:15:55.307Z,0.00
2022-10-05T05:16:55.282Z,0.00
2022-10-05T05:17:55.231Z,0.00
2022-10-05T05:18:55.219Z,0.00
2022-10-05T05:19:55.212Z,0.00
2022-10-05T05:20:55.242Z,0.00
2022-10-05T05:21:55.228Z,0.00
2022-10-05T05:22:55.196Z,0.00
2022-10-05T05:23:55.217Z,0.00
2022-10-05T05:24:55.162Z,0.00
2022-10-05T05:25:55.150Z,0.00
2022-10-05T05:26:55.180Z,0.00
2022-10-05T05:27:55.208Z,0.00
2022-10-05T05:28:55.116Z,0.00
2022-10-05T05:29:55.101Z,0.00
2022-10-05T05:30:55.139Z,0.00
2022-10-05T05:31:55.075Z,0.00
2022-10-05T05:32:55.064Z,0.00
2022-10-05T05:33:55.087Z,0.00
2022-10-05T05:34:55.044Z,0.00
2022-10-05T05:35:55.060Z,5.62
2022-10-05T05:36:55.094Z,5.62
2022-10-05T05:37:55.022Z,5.62
2022-10-05T05:38:55.016Z,5.62
2022-10-05T05:39:54.999Z,5.62
2022-10-05T05:40:55.658Z,5.62
2022-10-05T05:41:54.984Z,5.62
2022-10-05T05:42:54.965Z,11.25
2022-10-05T05:43:54.959Z,11.25
2022-10-05T05:44:54.931Z,11.25
2022-10-05T05:45:54.925Z,11.25
2022-10-05T05:47:10.647Z,11.25
2022-10-05T05:47:54.907Z,11.25
2022-10-05T05:48:54.899Z,16.88
2022-10-05T05:49:54.887Z,16.88
2022-10-05T05:50:54.871Z,16.88
2022-10-05T05:51:54.857Z,16.88
2022-10-05T05:52:54.878Z,22.50
2022-10-05T05:53:54.854Z,22.50
2022-10-05T05:54:54.830Z,22.50
2022-10-05T05:55:54.822Z,22.50
2022-10-05T05:56:54.792Z,22.50
2022-10-05T05:57:54.846Z,28.12
2022-10-05T05:58:54.793Z,28.12
2022-10-05T05:59:54.801Z,33.75
2022-10-05T06:00:54.745Z,33.75
2022-10-05T06:01:54.804Z,33.75
2022-10-05T06:02:54.821Z,33.75
2022-10-05T06:03:54.724Z,33.75
2022-10-05T06:04:54.712Z,33.75
2022-10-05T06:05:54.717Z,33.75
2022-10-05T06:06:54.679Z,33.75
2022-10-05T06:07:54.759Z,39.38
2022-10-05T06:08:54.655Z,39.38
2022-10-05T06:09:54.686Z,45.00
2022-10-05T06:10:54.642Z,45.00
2022-10-05T06:11:54.632Z,45.00
2022-10-05T06:12:58.414Z,50.62
2022-10-05T06:13:54.631Z,50.62
2022-10-05T06:14:54.620Z,50.62
2022-10-05T06:15:54.638Z,50.62
2022-10-05T06:16:54.615Z,50.62
2022-10-05T06:17:54.581Z,50.62
2022-10-05T06:18:54.550Z,50.62
2022-10-05T06:19:54.552Z,50.62
2022-10-05T06:20:54.542Z,50.62
2022-10-05T06:21:54.521Z,50.62
2022-10-05T06:22:54.509Z,50.62
2022-10-05T06:23:54.501Z,50.62
2022-10-05T06:24:54.478Z,50.62
2022-10-05T06:25:54.525Z,50.62
2022-10-05T06:26:54.463Z,50.62
2022-10-05T06:27:54.487Z,56.25
2022-10-05T06:28:54.443Z,61.88
2022-10-05T06:29:54.459Z,61.88
2022-10-05T06:30:54.446Z,61.88
2022-10-05T06:31:58.701Z,61.88
2022-10-05T06:32:54.412Z,61.88
2022-10-05T06:33:54.398Z,56.25
2022-10-05T06:34:54.375Z,56.25
2022-10-05T06:35:54.355Z,56.25
2022-10-05T06:36:54.377Z,61.88
2022-10-05T06:37:54.351Z,61.88
2022-10-05T06:38:54.361Z,61.88
2022-10-05T06:39:58.705Z,67.50
2022-10-05T06:40:54.324Z,67.50
2022-10-05T06:41:54.297Z,73.12
2022-10-05T06:42:54.295Z,73.12
2022-10-05T06:43:54.262Z,73.12
2022-10-05T06:44:54.284Z,78.75
2022-10-05T06:45:54.320Z,84.38
2022-10-05T06:46:54.231Z,84.38
2022-10-05T06:47:54.220Z,90.00
2022-10-05T06:48:54.231Z,90.00
2022-10-05T06:49:54.232Z,84.38
2022-10-05T06:50:54.196Z,90.00
2022-10-05T06:51:54.187Z,90.00
2022-10-05T06:52:54.245Z,84.38
2022-10-05T06:53:54.165Z,95.62
2022-10-05T06:54:54.136Z,95.62
2022-10-05T06:55:54.160Z,95.62
2022-10-05T06:56:54.118Z,95.62
2022-10-05T06:57:54.126Z,101.25
2022-10-05T06:58:54.135Z,101.25
2022-10-05T06:59:54.137Z,106.88
2022-10-05T07:00:54.151Z,118.12
2022-10-05T07:01:54.120Z,118.12
2022-10-05T07:02:54.082Z,123.75
2022-10-05T07:03:54.042Z,135.00
2022-10-05T07:04:54.057Z,140.62
2022-10-05T07:05:54.041Z,135.00
2022-10-05T07:06:54.064Z,140.62
2022-10-05T07:07:54.056Z,140.62
2022-10-05T07:08:54.031Z,129.38
2022-10-05T07:09:54.124Z,129.38
2022-10-05T07:10:53.974Z,129.38
2022-10-05T07:11:58.446Z,135.00
2022-10-05T07:14:04.712Z,146.25
2022-10-05T07:15:05.687Z,151.88
2022-10-05T07:16:05.699Z,151.88
2022-10-05T07:17:05.630Z,146.25
2022-10-05T07:18:05.624Z,146.25
2022-10-05T07:19:05.615Z,146.25
2022-10-05T07:20:05.622Z,146.25
2022-10-05T07:21:05.624Z,151.88
2022-10-05T07:22:05.580Z,146.25
2022-10-05T07:23:05.567Z,146.25
2022-10-05T07:24:05.557Z,140.62
2022-10-05T07:25:05.571Z,146.25
2022-10-05T07:26:05.542Z,140.62
2022-10-05T07:27:05.526Z,140.62
2022-10-05T07:28:05.556Z,140.62
2022-10-05T07:29:05.506Z,140.62
2022-10-05T07:30:05.522Z,135.00
2022-10-05T07:31:05.596Z,140.62
2022-10-05T07:32:05.522Z,140.62
2022-10-05T07:33:05.501Z,146.25
2022-10-05T07:34:05.659Z,157.50
2022-10-05T07:35:05.456Z,163.12
2022-10-05T07:36:05.413Z,163.12
2022-10-05T07:37:05.401Z,168.75
2022-10-05T07:38:05.403Z,174.38
2022-10-05T07:39:05.421Z,174.38
2022-10-05T07:40:05.414Z,180.00
2022-10-05T07:41:05.356Z,180.00
2022-10-05T07:42:05.384Z,196.88
2022-10-05T07:43:05.346Z,213.75
2022-10-05T07:44:08.888Z,208.12
2022-10-05T07:45:05.363Z,213.75
2022-10-05T07:46:05.379Z,219.38
2022-10-05T07:47:05.318Z,225.00
2022-10-05T07:48:05.302Z,236.25
2022-10-05T07:49:05.323Z,236.25
2022-10-05T07:50:05.278Z,230.62
2022-10-05T07:51:05.270Z,236.25
2022-10-05T07:52:05.234Z,247.50
2022-10-05T07:53:05.230Z,241.88
2022-10-05T07:54:05.244Z,253.12
2022-10-05T07:55:05.206Z,247.50
2022-10-05T07:56:05.194Z,247.50
2022-10-05T07:57:05.180Z,253.12
2022-10-05T07:58:05.200Z,253.12
2022-10-05T07:59:05.175Z,270.00
2022-10-05T08:00:05.141Z,247.50
2022-10-05T08:01:05.147Z,253.12
2022-10-05T08:02:05.365Z,247.50
2022-10-05T08:03:05.159Z,258.75
2022-10-05T08:04:05.120Z,253.12
2022-10-05T08:05:05.101Z,264.38
2022-10-05T08:06:05.073Z,264.38
2022-10-05T08:07:05.094Z,264.38
2022-10-05T08:08:05.064Z,258.75
2022-10-05T08:09:05.116Z,264.38
2022-10-05T08:10:05.060Z,253.12
2022-10-05T08:11:05.083Z,247.50
2022-10-05T08:12:05.013Z,253.12
2022-10-05T08:13:05.000Z,253.12
2022-10-05T08:14:05.003Z,258.75
2022-10-05T08:15:04.980Z,247.50
2022-10-05T08:16:05.015Z,247.50
2022-10-05T08:17:04.954Z,253.12
2022-10-05T08:18:04.957Z,258.75
2022-10-05T08:19:04.926Z,258.75
2022-10-05T08:20:05.172Z,253.12
2022-10-05T08:21:04.941Z,258.75
2022-10-05T08:22:05.124Z,253.12
2022-10-05T08:23:04.919Z,258.75
2022-10-05T08:24:04.883Z,258.75
2022-10-05T08:25:05.099Z,270.00
2022-10-05T08:26:04.914Z,258.75
2022-10-05T08:27:05.063Z,270.00
2022-10-05T08:28:05.066Z,270.00
2022-10-05T08:29:05.025Z,270.00
2022-10-05T08:30:04.862Z,286.88
2022-10-05T08:31:05.696Z,315.00
2022-10-05T08:32:04.969Z,315.00
2022-10-05T08:33:04.814Z,331.88
2022-10-05T08:34:04.772Z,315.00
2022-10-05T08:35:04.790Z,320.62
2022-10-05T08:36:04.734Z,315.00
2022-10-05T08:37:04.954Z,320.62
2022-10-05T08:38:04.730Z,326.25
2022-10-05T08:39:04.726Z,315.00
2022-10-05T08:40:04.696Z,331.88
2022-10-05T08:41:04.695Z,331.88
2022-10-05T08:42:04.768Z,326.25
2022-10-05T08:43:04.659Z,315.00
2022-10-05T08:44:04.673Z,315.00
2022-10-05T08:45:04.664Z,315.00
2022-10-05T08:46:04.745Z,309.38
2022-10-05T08:47:04.618Z,320.62
2022-10-05T08:48:04.637Z,315.00
2022-10-05T08:49:04.637Z,320.62
2022-10-05T08:50:04.596Z,337.50
2022-10-05T08:51:04.573Z,331.88
2022-10-05T08:52:04.563Z,337.50
2022-10-05T08:53:04.595Z,337.50
2022-10-05T08:54:04.538Z,326.25
2022-10-05T08:55:04.767Z,298.12
2022-10-05T08:56:04.521Z,331.88
2022-10-05T08:57:04.513Z,303.75
2022-10-05T08:58:04.511Z,309.38
2022-10-05T08:59:05.146Z,331.88
2022-10-05T09:00:04.485Z,331.88
2022-10-05T09:01:04.531Z,320.62
2022-10-05T09:02:04.609Z,354.38
2022-10-05T09:03:04.442Z,365.62
2022-10-05T09:04:04.434Z,360.00
2022-10-05T09:05:04.456Z,416.25
2022-10-05T09:06:04.445Z,427.50
2022-10-05T09:07:04.407Z,393.75
2022-10-05T09:08:04.387Z,405.00
2022-10-05T09:09:04.409Z,438.75
2022-10-05T09:10:04.377Z,427.50
2022-10-05T09:11:04.374Z,405.00
2022-10-05T09:12:04.350Z,427.50
2022-10-05T09:13:04.372Z,393.75
2022-10-05T09:14:04.304Z,438.75
2022-10-05T09:15:26.491Z,450.00
2022-10-05T09:16:04.386Z,450.00
2022-10-05T09:17:04.367Z,421.88
2022-10-05T09:18:04.259Z,478.12
2022-10-05T09:19:04.425Z,433.12
2022-10-05T09:20:04.282Z,382.50
2022-10-05T09:21:04.263Z,354.38
2022-10-05T09:22:04.237Z,348.75
2022-10-05T09:23:04.217Z,309.38
2022-10-05T09:24:04.200Z,354.38
2022-10-05T09:25:04.190Z,320.62
2022-10-05T09:26:04.180Z,331.88
2022-10-05T09:27:04.192Z,343.12
2022-10-05T09:28:04.237Z,388.12
2022-10-05T09:29:04.182Z,382.50
2022-10-05T09:30:04.259Z,365.62
2022-10-05T09:31:04.236Z,393.75
2022-10-05T09:32:04.146Z,410.62
2022-10-05T09:33:04.139Z,421.88
2022-10-05T09:34:04.129Z,444.38
2022-10-05T09:35:04.098Z,410.62
2022-10-05T09:36:04.110Z,405.00
2022-10-05T09:37:04.066Z,371.25
2022-10-05T09:38:04.062Z,393.75
2022-10-05T09:39:04.039Z,416.25
2022-10-05T09:40:04.050Z,421.88
2022-10-05T09:41:04.051Z,405.00
2022-10-05T09:42:04.006Z,450.00
2022-10-05T09:43:10.583Z,427.50
2022-10-05T09:44:03.984Z,410.62
2022-10-05T09:45:04.007Z,438.75
2022-10-05T09:46:03.998Z,461.25
2022-10-05T09:47:03.950Z,461.25
2022-10-05T09:48:03.959Z,534.38
2022-10-05T09:49:03.942Z,613.12
2022-10-05T09:50:03.910Z,613.12
2022-10-05T09:51:03.930Z,562.50
2022-10-05T09:52:04.288Z,601.88
2022-10-05T09:53:03.872Z,680.62
2022-10-05T09:54:03.860Z,613.12
2022-10-05T09:55:03.887Z,686.25
2022-10-05T09:56:03.854Z,995.62
2022-10-05T09:57:03.857Z,523.12
2022-10-05T09:58:03.849Z,680.62
2022-10-05T09:59:03.840Z,658.12
2022-10-05T10:00:03.836Z,849.38
2022-10-05T10:01:09.817Z,720.00
2022-10-05T10:02:03.831Z,697.50
2022-10-05T10:03:03.881Z,579.38
2022-10-05T10:04:03.969Z,635.62
2022-10-05T10:05:03.736Z,1080.00
2022-10-05T10:06:03.756Z,635.62
2022-10-05T10:07:03.737Z,618.75
2022-10-05T10:08:03.727Z,624.38
2022-10-05T10:09:03.779Z,810.00
2022-10-05T10:10:03.710Z,1018.12
2022-10-05T10:11:03.672Z,984.38
2022-10-05T10:12:03.671Z,540.00
2022-10-05T10:13:03.669Z,781.88
2022-10-05T10:14:03.687Z,1029.38
2022-10-05T10:15:03.642Z,967.50
2022-10-05T10:16:03.670Z,1040.62
2022-10-05T10:17:03.616Z,1063.12
2022-10-05T10:18:03.596Z,1068.75
2022-10-05T10:19:03.600Z,613.12
2022-10-05T10:20:03.579Z,1158.75
2022-10-05T10:21:03.575Z,1040.62
2022-10-05T10:22:03.600Z,911.25
2022-10-05T10:23:03.567Z,911.25
2022-10-05T10:24:03.533Z,916.88
2022-10-05T10:25:03.534Z,916.88
2022-10-05T10:26:03.508Z,916.88
2022-10-05T10:27:03.519Z,928.12
2022-10-05T10:28:03.536Z,916.88
2022-10-05T10:29:03.737Z,939.38
2022-10-05T10:30:04.222Z,928.12
2022-10-05T10:31:04.323Z,939.38
2022-10-05T10:32:03.453Z,933.75
2022-10-05T10:33:03.458Z,950.62
2022-10-05T10:34:03.422Z,973.12
2022-10-05T10:35:03.419Z,1018.12
2022-10-05T10:36:06.255Z,663.75
2022-10-05T10:37:03.400Z,1125.00
2022-10-05T10:38:03.390Z,1046.25
2022-10-05T10:39:03.363Z,630.00
2022-10-05T10:40:03.378Z,787.50
2022-10-05T10:41:03.377Z,1147.50
2022-10-05T10:42:03.356Z,1254.38
2022-10-05T10:43:03.327Z,1265.62
2022-10-05T10:44:03.328Z,1012.50
2022-10-05T10:45:03.368Z,1248.75
2022-10-05T10:46:03.348Z,1119.38
2022-10-05T10:47:03.293Z,1074.38
2022-10-05T10:48:03.306Z,1074.38
2022-10-05T10:49:03.268Z,1102.50
2022-10-05T10:50:03.244Z,1175.62
2022-10-05T10:51:03.278Z,1147.50
2022-10-05T10:52:03.243Z,1085.62
2022-10-05T10:53:09.768Z,1102.50
2022-10-05T10:54:03.272Z,1147.50
2022-10-05T10:55:03.225Z,1209.38
2022-10-05T10:56:03.202Z,1248.75
2022-10-05T10:57:03.173Z,1192.50
2022-10-05T10:58:03.191Z,1001.25
2022-10-05T10:59:03.161Z,894.38
2022-10-05T11:00:03.173Z,1271.25
2022-10-05T11:01:03.178Z,1282.50
2022-10-05T11:02:03.165Z,742.50
2022-10-05T11:03:03.240Z,1344.38
2022-10-05T11:04:03.104Z,1378.12
2022-10-05T11:05:03.114Z,1440.00
2022-10-05T11:06:03.117Z,1451.25
2022-10-05T11:07:03.063Z,1490.62
2022-10-05T11:08:03.060Z,1552.50
2022-10-05T11:09:03.067Z,1608.75
2022-10-05T11:10:03.066Z,1676.25
2022-10-05T11:11:03.050Z,1710.00
2022-10-05T11:12:03.019Z,1743.75
2022-10-05T11:13:03.035Z,1788.75
2022-10-05T11:14:03.000Z,1850.62
2022-10-05T11:15:03.016Z,1906.88
2022-10-05T11:16:03.153Z,1923.75
2022-10-05T11:17:02.967Z,1963.12
2022-10-05T11:18:02.977Z,1991.25
2022-10-05T11:19:02.941Z,2008.12
2022-10-05T11:20:04.406Z,2075.62
2022-10-05T11:21:02.921Z,2182.50
2022-10-05T11:22:02.930Z,2356.88
2022-10-05T11:23:02.910Z,2598.75
2022-10-05T11:24:02.886Z,2840.62
2022-10-05T11:25:02.905Z,2913.75
2022-10-05T11:26:02.877Z,2863.12
2022-10-05T11:27:02.869Z,2756.25
2022-10-05T11:28:02.932Z,2626.88
2022-10-05T11:29:03.060Z,2520.00
2022-10-05T11:30:02.920Z,2424.38
2022-10-05T11:31:02.867Z,2345.62
2022-10-05T11:32:02.831Z,2233.12
2022-10-05T11:33:02.806Z,2075.62
2022-10-05T11:34:02.792Z,1957.50
2022-10-05T11:35:02.774Z,1822.50
2022-10-05T11:36:02.774Z,1766.25
2022-10-05T11:37:02.762Z,1715.62
2022-10-05T11:38:02.781Z,1704.38
2022-10-05T11:39:02.759Z,1698.75
2022-10-05T11:40:02.735Z,1681.88
2022-10-05T11:41:02.710Z,1631.25
2022-10-05T11:42:02.718Z,1620.00
2022-10-05T11:43:02.698Z,1591.88
2022-10-05T11:44:06.196Z,1546.88
2022-10-05T11:45:02.704Z,1496.25
2022-10-05T11:46:02.776Z,1456.88
2022-10-05T11:47:02.722Z,1428.75
2022-10-05T11:48:02.681Z,1389.38
2022-10-05T11:49:02.640Z,1344.38
2022-10-05T11:50:10.315Z,1316.25
2022-10-05T11:51:02.617Z,1282.50
2022-10-05T11:52:02.608Z,1231.88
2022-10-05T11:53:05.359Z,1192.50
2022-10-05T11:54:02.587Z,1147.50
2022-10-05T11:55:11.805Z,1102.50
2022-10-05T11:56:02.603Z,1051.88
2022-10-05T11:57:02.592Z,1023.75
2022-10-05T11:58:02.547Z,1012.50
